Terminal Aerodrome Forecast
Issued by NWS

Home | Current Version | Previous Version | Text Only | Print | Product List | Glossary On
Versions: 1 2 3 4 5 6 7 8 9 10 11 12 13 14 15 16 17
000
FTUS43 KICT 292300
TAFSLN
TAF
KSLN 292332Z 3000/3024 09009KT P6SM SCT070
     FM300800 09007KT P6SM VCSH SCT040 OVC070
     FM301400 09007KT P6SM SCT040 OVC070=

USA.gov is the U.S. government's official web portal to all federal, state and local government web resources and services.